Time;durP1;ratioP1;P1;durP2;ratioP2;P2;SDS_P1;SDS_P2;PMS_P1;PMS_P2;Temp;Humidity;BMP_temperature;BMP_pressure;BME280_temperature;BME280_humidity;BME280_pressure;Samples;Min_cycle;Max_cycle;Signal;HPM_P1;HPM_P2
2022/02/18 00:01:42;;;;;;;14.77;4.60;;;7.50;88.70;;;;;;5140264;27;20435;-45
2022/02/18 00:04:07;;;;;;;32.00;5.27;;;7.50;88.90;;;;;;5141217;27;20276;-45
2022/02/18 00:06:33;;;;;;;19.77;4.57;;;7.60;88.70;;;;;;5121859;27;20179;-45
2022/02/18 00:08:59;;;;;;;14.57;4.40;;;7.60;88.30;;;;;;5141100;27;20343;-45
2022/02/18 00:11:25;;;;;;;13.90;4.10;;;7.60;88.10;;;;;;5139954;27;20191;-45
2022/02/18 00:13:50;;;;;;;18.87;4.20;;;7.50;88.20;;;;;;5140798;27;20508;-45
2022/02/18 00:16:16;;;;;;;18.90;4.70;;;7.60;88.20;;;;;;5139740;27;20210;-45
2022/02/18 00:18:41;;;;;;;18.10;4.93;;;7.60;88.30;;;;;;5140806;27;20300;-45
2022/02/18 00:21:07;;;;;;;23.20;5.77;;;7.50;88.20;;;;;;5140227;27;20186;-45
2022/02/18 00:23:33;;;;;;;18.80;4.63;;;7.60;88.00;;;;;;5140876;27;20515;-44
2022/02/18 00:25:59;;;;;;;18.10;4.40;;;7.60;87.80;;;;;;5139383;27;20262;-45
2022/02/18 00:28:25;;;;;;;16.53;4.70;;;7.70;87.50;;;;;;5140773;27;20413;-45
2022/02/18 00:30:51;;;;;;;19.50;3.87;;;7.60;88.10;;;;;;5139993;27;20175;-45
2022/02/18 00:33:19;;;;;;;14.27;4.30;;;7.70;87.00;;;;;;5140854;27;20489;-45
2022/02/18 00:35:44;;;;;;;15.13;4.03;;;7.60;87.20;;;;;;5138568;27;20537;-45
2022/02/18 00:38:10;;;;;;;14.40;3.97;;;7.70;87.10;;;;;;5140676;27;20801;-45
2022/02/18 00:40:36;;;;;;;15.77;4.33;;;7.70;87.20;;;;;;5138506;27;20633;-43
2022/02/18 00:43:02;;;;;;;11.53;3.90;;;7.70;87.00;;;;;;5139418;27;20174;-45
2022/02/18 00:45:28;;;;;;;20.57;5.60;;;7.70;86.80;;;;;;5138068;27;20199;-45
2022/02/18 00:47:53;;;;;;;21.03;4.90;;;7.70;87.70;;;;;;5139270;27;20496;-45
2022/02/18 00:50:20;;;;;;;16.93;5.20;;;7.70;87.20;;;;;;5138174;27;20500;-45
2022/02/18 00:52:46;;;;;;;16.30;4.17;;;7.70;87.40;;;;;;5139430;27;20550;-45
2022/02/18 00:55:12;;;;;;;13.67;4.00;;;7.70;87.10;;;;;;5138412;27;20444;-45
2022/02/18 00:57:38;;;;;;;19.27;4.57;;;7.70;87.40;;;;;;5138985;27;20858;-45
2022/02/18 01:00:06;;;;;;;16.93;4.37;;;7.70;87.50;;;;;;5136751;27;20716;-45
2022/02/18 01:02:31;;;;;;;22.27;5.20;;;7.70;87.70;;;;;;5139058;27;20192;-45
2022/02/18 01:04:57;;;;;;;14.60;4.33;;;7.70;87.40;;;;;;5119569;27;20505;-45
2022/02/18 01:07:25;;;;;;;14.07;4.30;;;7.70;87.40;;;;;;5139029;27;20189;-45
2022/02/18 01:09:52;;;;;;;18.07;4.43;;;7.70;87.30;;;;;;5137610;27;20449;-45
2022/02/18 01:12:22;;;;;;;15.80;4.33;;;7.80;87.20;;;;;;5139730;27;20974;-45
2022/02/18 01:14:48;;;;;;;19.77;4.87;;;7.80;87.30;;;;;;5138466;27;20413;-45
2022/02/18 01:17:14;;;;;;;16.40;4.70;;;7.80;87.50;;;;;;5139383;27;20556;-45
2022/02/18 01:19:40;;;;;;;17.43;5.30;;;7.80;87.40;;;;;;5138775;27;20553;-45
2022/02/18 01:22:06;;;;;;;12.60;3.93;;;7.70;87.60;;;;;;5139748;27;20812;-45
2022/02/18 01:24:32;;;;;;;13.83;3.90;;;7.70;88.00;;;;;;5122123;27;20405;-45
2022/02/18 01:26:57;;;;;;;15.90;4.60;;;7.70;88.00;;;;;;5138604;27;20240;-45
2022/02/18 01:29:23;;;;;;;14.17;4.50;;;7.70;88.10;;;;;;5139525;27;20486;-46
2022/02/18 01:31:49;;;;;;;18.27;4.80;;;7.70;88.00;;;;;;5138797;27;20180;-46
2022/02/18 01:34:14;;;;;;;15.33;3.80;;;7.80;87.70;;;;;;5139816;27;20194;-46
2022/02/18 01:36:40;;;;;;;14.43;3.50;;;7.80;87.90;;;;;;5137985;27;20199;-43
2022/02/18 01:39:06;;;;;;;20.10;3.97;;;7.80;88.00;;;;;;5139941;27;20184;-43
2022/02/18 01:41:32;;;;;;;15.27;4.47;;;7.80;87.80;;;;;;5138216;27;20826;-44
2022/02/18 01:43:59;;;;;;;19.87;4.90;;;7.80;88.10;;;;;;5139527;27;20455;-44
2022/02/18 01:46:25;;;;;;;13.07;3.90;;;7.80;88.10;;;;;;5138170;27;20176;-44
2022/02/18 01:48:52;;;;;;;13.63;4.97;;;7.80;88.00;;;;;;5139263;27;20477;-44
2022/02/18 01:51:19;;;;;;;13.07;4.20;;;7.80;88.20;;;;;;5137995;27;20416;-44
2022/02/18 01:53:46;;;;;;;26.60;5.30;;;7.80;88.20;;;;;;5121671;27;20432;-44
2022/02/18 01:56:13;;;;;;;17.93;4.63;;;7.80;88.20;;;;;;5137561;27;20747;-44
2022/02/18 01:58:39;;;;;;;17.20;5.60;;;7.80;88.10;;;;;;5120978;27;20680;-44
2022/02/18 02:01:05;;;;;;;12.53;3.50;;;7.80;88.20;;;;;;5137954;27;20432;-44
2022/02/18 02:03:31;;;;;;;14.20;4.53;;;7.70;88.60;;;;;;5120683;27;20420;-44
2022/02/18 02:05:59;;;;;;;21.03;4.90;;;7.80;88.90;;;;;;5137765;27;20511;-44
2022/02/18 02:08:27;;;;;;;21.50;4.13;;;7.80;88.70;;;;;;5138379;27;20270;-44
2022/02/18 02:10:54;;;;;;;18.17;6.30;;;7.90;88.50;;;;;;5137642;27;20481;-44
2022/02/18 02:14:06;;;;;;;10.37;4.00;;;7.80;88.60;;;;;;5138943;27;20865;-44
2022/02/18 02:16:32;;;;;;;16.77;4.83;;;7.90;88.60;;;;;;5137718;27;20504;-44
2022/02/18 02:18:58;;;;;;;11.77;5.00;;;7.90;88.70;;;;;;5138487;27;20453;-44
2022/02/18 02:21:26;;;;;;;17.80;4.50;;;7.80;88.90;;;;;;5137733;27;20433;-44
2022/02/18 02:23:52;;;;;;;16.23;4.67;;;7.80;89.00;;;;;;5138711;28;20184;-44
2022/02/18 02:26:18;;;;;;;21.80;4.67;;;7.80;89.30;;;;;;5137811;28;20424;-44
2022/02/18 02:28:44;;;;;;;14.23;4.80;;;7.80;89.80;;;;;;5140849;27;20485;-44
2022/02/18 02:31:09;;;;;;;14.23;4.00;;;7.70;90.20;;;;;;5142099;27;20560;-44
2022/02/18 02:33:35;;;;;;;9.40;3.93;;;7.70;90.30;;;;;;5142872;27;20190;-44
2022/02/18 02:36:01;;;;;;;11.47;3.27;;;7.70;90.80;;;;;;5142078;27;20207;-44
2022/02/18 02:38:26;;;;;;;10.27;3.73;;;7.60;90.80;;;;;;5142836;27;20184;-44
2022/02/18 02:40:52;;;;;;;16.73;4.53;;;7.70;90.50;;;;;;5141820;27;20255;-44
2022/02/18 02:43:18;;;;;;;12.60;3.30;;;7.70;90.60;;;;;;5143031;27;20190;-44
2022/02/18 02:45:44;;;;;;;18.33;3.60;;;7.70;90.70;;;;;;5141637;27;20454;-44
2022/02/18 02:48:09;;;;;;;14.73;4.43;;;7.60;90.80;;;;;;5143185;27;20179;-44
2022/02/18 02:50:35;;;;;;;11.77;3.87;;;7.60;91.00;;;;;;5141340;27;20429;-44
2022/02/18 02:53:01;;;;;;;11.53;3.20;;;7.50;91.10;;;;;;5142832;27;20211;-44
2022/02/18 02:55:26;;;;;;;11.27;3.70;;;7.40;91.30;;;;;;5140484;27;20503;-44
2022/02/18 02:57:53;;;;;;;12.37;3.90;;;7.50;91.50;;;;;;5142811;27;20202;-44
2022/02/18 03:00:19;;;;;;;10.90;3.07;;;7.50;91.40;;;;;;5141366;27;20265;-44
2022/02/18 03:02:45;;;;;;;17.23;3.70;;;7.50;91.50;;;;;;5141744;27;20500;-44
2022/02/18 03:05:11;;;;;;;14.83;4.03;;;7.50;91.50;;;;;;5141103;27;20507;-44
2022/02/18 03:07:37;;;;;;;14.57;3.70;;;7.50;91.70;;;;;;5124350;27;20268;-44
2022/02/18 03:10:07;;;;;;;9.23;3.67;;;7.50;91.70;;;;;;5140863;27;20519;-44
2022/02/18 03:12:33;;;;;;;11.40;4.00;;;7.60;91.80;;;;;;5142311;27;20425;-44
2022/02/18 03:14:59;;;;;;;15.60;3.93;;;7.50;91.80;;;;;;5141162;27;20450;-44
2022/02/18 03:17:25;;;;;;;13.07;2.83;;;7.50;91.90;;;;;;5141789;27;20472;-44
2022/02/18 03:19:51;;;;;;;10.37;3.73;;;7.50;92.00;;;;;;5140870;27;20407;-44
2022/02/18 03:22:17;;;;;;;12.63;2.87;;;7.60;92.00;;;;;;5123904;27;20850;-44
2022/02/18 03:24:43;;;;;;;11.10;3.37;;;7.50;92.10;;;;;;5140801;27;20620;-44
2022/02/18 03:27:09;;;;;;;12.90;3.43;;;7.50;92.10;;;;;;5142197;27;20413;-44
2022/02/18 03:29:34;;;;;;;21.37;4.67;;;7.60;92.00;;;;;;5140605;27;20818;-44
2022/02/18 03:32:01;;;;;;;13.20;3.50;;;7.60;92.20;;;;;;5142122;27;20416;-44
2022/02/18 03:34:26;;;;;;;9.43;3.80;;;7.60;92.20;;;;;;5123639;27;20176;-44
2022/02/18 03:36:52;;;;;;;13.80;5.53;;;7.70;92.00;;;;;;5140927;27;20555;-44
2022/02/18 03:39:18;;;;;;;10.77;3.40;;;7.70;92.00;;;;;;5141091;27;20425;-44
2022/02/18 03:41:43;;;;;;;15.63;3.80;;;7.70;92.00;;;;;;5140298;27;20174;-44
2022/02/18 03:44:10;;;;;;;11.23;3.30;;;7.70;92.10;;;;;;5141245;27;20202;-43
2022/02/18 03:46:36;;;;;;;10.27;3.40;;;7.70;92.30;;;;;;5140484;27;20203;-44
2022/02/18 03:49:02;;;;;;;13.70;4.43;;;7.60;92.50;;;;;;5141338;27;20750;-44
2022/02/18 03:51:28;;;;;;;10.23;3.43;;;7.60;92.50;;;;;;5141544;27;20163;-44
2022/02/18 03:53:53;;;;;;;12.77;2.97;;;7.70;92.40;;;;;;5140135;27;20516;-44
2022/02/18 03:56:19;;;;;;;15.27;3.93;;;7.60;92.40;;;;;;5141270;27;20242;-44
2022/02/18 03:58:45;;;;;;;11.90;4.10;;;7.60;92.70;;;;;;5140589;27;20182;-48
2022/02/18 04:01:11;;;;;;;11.60;3.60;;;7.60;92.80;;;;;;5141375;27;20800;-44
2022/02/18 04:03:37;;;;;;;14.73;4.20;;;7.50;92.90;;;;;;5139970;27;20413;-44
2022/02/18 04:06:03;;;;;;;13.70;3.80;;;7.50;93.10;;;;;;5141441;27;20478;-44
2022/02/18 04:08:29;;;;;;;11.50;3.93;;;7.50;93.30;;;;;;5140414;27;20497;-44
2022/02/18 04:10:54;;;;;;;13.97;4.07;;;7.50;93.30;;;;;;5140920;27;20504;-44
2022/02/18 04:13:20;;;;;;;14.83;4.50;;;7.50;93.50;;;;;;5121946;27;20190;-44
2022/02/18 04:15:46;;;;;;;17.60;3.90;;;7.40;93.80;;;;;;5141004;27;20231;-44
2022/02/18 04:18:11;;;;;;;11.30;3.17;;;7.40;93.90;;;;;;5139154;27;20505;-44
2022/02/18 04:20:37;;;;;;;15.33;4.10;;;7.30;94.00;;;;;;5140983;27;20561;-44
2022/02/18 04:23:03;;;;;;;16.40;4.07;;;7.40;94.20;;;;;;5140841;27;20175;-44
2022/02/18 04:25:30;;;;;;;10.27;3.63;;;7.40;94.10;;;;;;5140045;27;20168;-44
2022/02/18 04:28:00;;;;;;;12.07;3.30;;;7.40;94.10;;;;;;5121778;27;20418;-44
2022/02/18 04:30:26;;;;;;;11.87;3.50;;;7.40;94.20;;;;;;5119746;27;20452;-44
2022/02/18 04:32:52;;;;;;;13.03;3.60;;;7.50;94.20;;;;;;5138652;27;20678;-44
2022/02/18 04:35:18;;;;;;;13.30;3.87;;;7.50;94.30;;;;;;5138071;27;20423;-44
2022/02/18 04:37:44;;;;;;;15.10;3.73;;;7.50;94.40;;;;;;5139516;27;20910;-44
2022/02/18 04:40:12;;;;;;;16.37;3.97;;;7.50;94.30;;;;;;5138810;27;20520;-44
2022/02/18 04:42:37;;;;;;;14.33;3.63;;;7.50;94.40;;;;;;5140157;27;20224;-44
2022/02/18 04:45:03;;;;;;;14.73;4.90;;;7.50;94.50;;;;;;5138982;27;20802;-44
2022/02/18 04:47:29;;;;;;;14.47;3.47;;;7.50;94.60;;;;;;5140245;27;20202;-44
2022/02/18 04:49:55;;;;;;;17.13;3.90;;;7.50;94.50;;;;;;5139177;27;20424;-44
2022/02/18 04:52:20;;;;;;;15.60;3.40;;;7.50;94.60;;;;;;5138583;27;20220;-44
2022/02/18 04:54:46;;;;;;;14.90;4.30;;;7.50;94.60;;;;;;5138362;27;20238;-44
2022/02/18 04:57:12;;;;;;;19.30;4.20;;;7.40;94.70;;;;;;5136937;27;20237;-44
2022/02/18 04:59:37;;;;;;;10.50;3.80;;;7.50;94.80;;;;;;5135050;27;20220;-44
2022/02/18 05:02:04;;;;;;;11.80;4.33;;;7.40;94.80;;;;;;5135174;27;20437;-42
2022/02/18 05:04:29;;;;;;;12.33;4.03;;;7.50;94.40;;;;;;5137174;27;20632;-43
2022/02/18 05:06:55;;;;;;;13.67;4.00;;;7.60;94.40;;;;;;5135810;27;20515;-44
2022/02/18 05:09:21;;;;;;;20.53;4.07;;;7.50;94.20;;;;;;5137065;27;20185;-41
2022/02/18 05:11:47;;;;;;;11.87;3.07;;;7.50;94.20;;;;;;5134985;27;20829;-45
2022/02/18 05:14:12;;;;;;;12.83;3.20;;;7.50;94.20;;;;;;5136557;27;20178;-43
2022/02/18 05:16:38;;;;;;;13.17;3.27;;;7.50;94.10;;;;;;5135502;27;20211;-43
2022/02/18 05:19:06;;;;;;;19.50;4.77;;;7.50;94.00;;;;;;5137038;27;20238;-43
2022/02/18 05:21:31;;;;;;;16.40;3.40;;;7.50;94.00;;;;;;5136248;27;20194;-45
2022/02/18 05:23:57;;;;;;;17.33;5.50;;;7.50;94.10;;;;;;5138989;27;20613;-46
2022/02/18 05:26:23;;;;;;;12.60;3.47;;;7.50;94.00;;;;;;5137577;27;20182;-45
2022/02/18 05:28:48;;;;;;;12.23;3.87;;;7.40;94.00;;;;;;5139565;27;20690;-42
2022/02/18 05:31:14;;;;;;;14.00;3.20;;;7.40;94.00;;;;;;5120418;27;20561;-45
2022/02/18 05:33:40;;;;;;;12.57;4.70;;;7.50;93.90;;;;;;5139944;27;20182;-45
2022/02/18 05:36:05;;;;;;;15.10;4.50;;;7.50;93.70;;;;;;5137866;27;20589;-42
2022/02/18 05:38:31;;;;;;;9.63;3.30;;;7.50;93.70;;;;;;5139268;27;20265;-42
2022/02/18 05:40:56;;;;;;;18.43;4.47;;;7.50;93.70;;;;;;5137816;27;20273;-42
2022/02/18 05:43:22;;;;;;;10.93;3.03;;;7.50;93.80;;;;;;5138272;27;20175;-45
2022/02/18 05:45:48;;;;;;;11.57;2.90;;;7.40;93.60;;;;;;5137639;27;20562;-44
2022/02/18 05:48:13;;;;;;;7.93;2.87;;;7.50;93.70;;;;;;5135997;27;20181;-42
2022/02/18 05:50:39;;;;;;;10.03;3.40;;;7.50;93.60;;;;;;5135753;27;20261;-44
2022/02/18 05:53:05;;;;;;;14.23;3.60;;;7.50;93.50;;;;;;5137017;27;20252;-42
2022/02/18 05:55:30;;;;;;;10.73;3.70;;;7.50;93.30;;;;;;5138122;27;20537;-46
2022/02/18 05:57:56;;;;;;;16.97;4.07;;;7.50;93.30;;;;;;5137632;27;20260;-44
2022/02/18 06:00:22;;;;;;;16.07;3.90;;;7.60;93.20;;;;;;5138137;27;20179;-45
2022/02/18 06:02:47;;;;;;;15.60;3.87;;;7.60;93.10;;;;;;5136773;27;20203;-42
2022/02/18 06:05:14;;;;;;;12.80;3.63;;;7.60;93.10;;;;;;5119145;27;20182;-45
2022/02/18 06:07:46;;;;;;;10.53;3.20;;;7.70;93.10;;;;;;5135384;27;20203;-44
2022/02/18 06:10:12;;;;;;;10.80;4.63;;;7.70;93.00;;;;;;5136257;27;20802;-43
2022/02/18 06:12:37;;;;;;;12.00;4.17;;;7.70;93.00;;;;;;5114357;28;20511;-43
2022/02/18 06:15:03;;;;;;;12.00;3.13;;;7.70;93.10;;;;;;5132419;27;20178;-44
2022/02/18 06:17:29;;;;;;;17.50;3.60;;;7.70;93.20;;;;;;5131899;27;20236;-42
2022/02/18 06:19:55;;;;;;;9.03;3.07;;;7.70;93.30;;;;;;5130947;27;20483;-42
2022/02/18 06:22:20;;;;;;;11.10;3.27;;;7.70;93.40;;;;;;5133229;27;20460;-43
2022/02/18 06:24:46;;;;;;;12.70;4.17;;;7.80;93.50;;;;;;5131720;27;20260;-42
2022/02/18 06:27:12;;;;;;;9.60;3.10;;;7.80;93.50;;;;;;5130899;28;20179;-44
2022/02/18 06:29:37;;;;;;;12.10;3.63;;;7.80;93.60;;;;;;5134699;28;20515;-45
2022/02/18 06:32:07;;;;;;;12.57;4.03;;;7.80;93.70;;;;;;5135002;28;20542;-44
2022/02/18 06:34:33;;;;;;;17.17;4.53;;;7.80;93.70;;;;;;5134658;28;20640;-45
2022/02/18 06:36:58;;;;;;;10.00;2.70;;;8.00;93.80;;;;;;5133003;28;20532;-43
2022/02/18 06:39:24;;;;;;;13.30;3.40;;;8.00;93.80;;;;;;5115076;28;20347;-46
2022/02/18 06:41:51;;;;;;;14.07;3.57;;;8.00;94.00;;;;;;5131903;28;20177;-43
2022/02/18 06:44:18;;;;;;;12.07;3.20;;;8.00;94.00;;;;;;5134781;28;20401;-44
2022/02/18 06:46:44;;;;;;;9.97;3.00;;;8.00;94.10;;;;;;5127649;28;20472;-43
2022/02/18 06:49:09;;;;;;;14.07;3.07;;;8.10;94.20;;;;;;5112397;28;20908;-43
2022/02/18 06:51:35;;;;;;;10.70;3.33;;;8.10;94.30;;;;;;5111771;28;20180;-44
2022/02/18 06:54:01;;;;;;;10.90;3.10;;;8.10;94.30;;;;;;5114342;28;20176;-44
2022/02/18 06:56:27;;;;;;;13.80;2.73;;;8.20;94.20;;;;;;5108455;28;20215;-44
2022/02/18 06:58:54;;;;;;;8.13;2.33;;;8.20;94.30;;;;;;5093245;28;20294;-44
2022/02/18 07:01:20;;;;;;;10.80;3.80;;;8.20;94.40;;;;;;5111673;28;20464;-46
2022/02/18 07:03:46;;;;;;;8.97;2.77;;;8.30;94.50;;;;;;5094990;28;20426;-43
2022/02/18 07:06:11;;;;;;;10.27;3.30;;;8.30;94.50;;;;;;5111477;28;20414;-45
2022/02/18 07:08:37;;;;;;;8.60;3.33;;;8.40;94.50;;;;;;5113810;28;20323;-44
2022/02/18 07:11:03;;;;;;;13.17;2.80;;;8.40;94.50;;;;;;5110399;28;20180;-43
2022/02/18 07:13:28;;;;;;;8.23;2.60;;;8.40;94.40;;;;;;5093453;28;20172;-45
2022/02/18 07:15:55;;;;;;;10.13;2.87;;;8.40;94.40;;;;;;5115116;28;20624;-44
2022/02/18 07:18:22;;;;;;;19.47;3.10;;;8.50;94.40;;;;;;5119593;27;20239;-42
2022/02/18 07:20:48;;;;;;;9.60;2.20;;;8.50;94.30;;;;;;5079655;28;20754;-42
2022/02/18 07:23:14;;;;;;;10.30;3.50;;;8.50;94.60;;;;;;5115009;28;20415;-41
2022/02/18 07:25:39;;;;;;;14.93;5.30;;;8.50;94.60;;;;;;5115769;28;20331;-44
2022/02/18 07:28:05;;;;;;;8.20;3.70;;;8.50;94.80;;;;;;5116880;28;20183;-41
2022/02/18 07:30:31;;;;;;;8.83;2.50;;;8.60;94.70;;;;;;5118345;28;20553;-44
2022/02/18 07:32:57;;;;;;;16.93;3.57;;;8.70;94.80;;;;;;5116187;28;20172;-42
2022/02/18 07:35:23;;;;;;;17.13;3.00;;;8.70;94.80;;;;;;5119147;28;20179;-44
2022/02/18 07:37:49;;;;;;;11.13;2.83;;;8.80;94.80;;;;;;5099016;28;20596;-41
2022/02/18 07:40:16;;;;;;;9.77;2.90;;;8.80;94.60;;;;;;5118341;28;20424;-42
2022/02/18 07:42:43;;;;;;;11.07;3.20;;;8.80;94.70;;;;;;5117361;28;20513;-44
2022/02/18 07:45:10;;;;;;;8.23;3.17;;;8.90;94.70;;;;;;5119417;28;20426;-42
2022/02/18 07:47:35;;;;;;;11.90;2.87;;;8.90;94.70;;;;;;5117473;28;20430;-42
2022/02/18 07:50:02;;;;;;;7.20;3.03;;;9.00;94.70;;;;;;5101609;28;20417;-44
2022/02/18 07:52:28;;;;;;;15.57;3.07;;;9.10;94.70;;;;;;5114594;28;20499;-42
2022/02/18 07:54:55;;;;;;;5.83;2.17;;;9.10;94.70;;;;;;5114773;28;20426;-42
2022/02/18 07:57:20;;;;;;;7.07;1.87;;;9.10;94.70;;;;;;5114990;28;20211;-43
2022/02/18 07:59:47;;;;;;;12.03;2.50;;;9.20;94.60;;;;;;5116426;28;20432;-42
2022/02/18 08:02:13;;;;;;;7.00;2.60;;;9.20;94.70;;;;;;5098375;28;20172;-43
2022/02/18 08:04:38;;;;;;;6.57;1.80;;;9.30;94.90;;;;;;5116430;28;20433;-45
2022/02/18 08:07:04;;;;;;;4.63;1.83;;;9.40;95.00;;;;;;5115317;28;20281;-43
2022/02/18 08:09:29;;;;;;;6.80;2.03;;;9.40;95.10;;;;;;5099673;28;20169;-42
2022/02/18 08:11:55;;;;;;;5.97;2.20;;;9.50;95.10;;;;;;5117013;28;20245;-42
2022/02/18 08:14:21;;;;;;;7.13;2.43;;;9.60;95.00;;;;;;5119698;28;20184;-44
2022/02/18 08:16:46;;;;;;;14.50;2.70;;;9.60;95.00;;;;;;5118786;28;20207;-42
2022/02/18 08:19:13;;;;;;;7.43;2.10;;;9.60;95.20;;;;;;5119254;28;20228;-44
2022/02/18 08:21:38;;;;;;;8.53;2.30;;;9.70;95.10;;;;;;5118842;28;20183;-43
2022/02/18 08:24:04;;;;;;;4.80;1.80;;;9.80;95.10;;;;;;5084756;28;20705;-44
2022/02/18 08:26:32;;;;;;;10.67;2.00;;;10.00;94.40;;;;;;5119650;28;20577;-45
2022/02/18 08:28:57;;;;;;;7.07;1.87;;;10.10;94.40;;;;;;5119045;28;20430;-44
2022/02/18 08:31:23;;;;;;;7.30;2.10;;;10.10;94.60;;;;;;5117460;28;20414;-43
2022/02/18 08:33:48;;;;;;;5.83;1.93;;;10.20;94.40;;;;;;5116154;28;20461;-44
2022/02/18 08:36:14;;;;;;;4.73;1.70;;;10.40;94.30;;;;;;5099697;28;20215;-44
2022/02/18 08:38:40;;;;;;;5.97;2.37;;;10.50;94.10;;;;;;5116360;28;20172;-44
2022/02/18 08:41:06;;;;;;;4.17;2.30;;;10.60;93.90;;;;;;5117899;28;20573;-44
2022/02/18 08:43:32;;;;;;;5.67;1.50;;;10.70;94.00;;;;;;5117523;28;20486;-45
2022/02/18 08:45:57;;;;;;;3.30;1.70;;;10.70;94.10;;;;;;5117856;28;20188;-44
2022/02/18 08:48:23;;;;;;;5.20;1.47;;;10.80;94.20;;;;;;5115729;28;20839;-43
2022/02/18 08:50:49;;;;;;;4.07;1.30;;;11.10;94.00;;;;;;5116605;28;20187;-43
2022/02/18 08:53:14;;;;;;;3.57;1.60;;;11.10;93.90;;;;;;5114118;28;20610;-45
2022/02/18 08:55:40;;;;;;;3.20;1.40;;;11.20;94.30;;;;;;5116887;28;20180;-46
2022/02/18 08:58:06;;;;;;;9.20;1.87;;;12.10;93.40;;;;;;5096873;28;20176;-43
2022/02/18 09:00:32;;;;;;;4.90;1.60;;;13.10;91.90;;;;;;5099046;28;20234;-43
2022/02/18 09:02:57;;;;;;;5.60;1.30;;;13.60;90.50;;;;;;5096734;28;20410;-45
2022/02/18 09:05:24;;;;;;;4.83;2.00;;;14.30;89.10;;;;;;5117990;28;20299;-43
2022/02/18 09:07:50;;;;;;;3.00;1.33;;;14.40;86.90;;;;;;5116068;28;20461;-45
2022/02/18 09:10:16;;;;;;;3.33;1.43;;;14.60;87.10;;;;;;5116570;28;20433;-44
2022/02/18 09:12:42;;;;;;;3.83;1.93;;;14.70;86.10;;;;;;5117014;28;20431;-44
2022/02/18 09:15:13;;;;;;;3.83;1.23;;;14.20;86.70;;;;;;5115451;28;21093;-43
2022/02/18 09:17:40;;;;;;;4.47;1.87;;;14.00;87.80;;;;;;5118109;28;20461;-46
2022/02/18 09:20:07;;;;;;;2.80;1.20;;;13.70;88.70;;;;;;5098179;28;20494;-43
2022/02/18 09:22:33;;;;;;;4.80;0.97;;;13.60;89.30;;;;;;5099326;28;20409;-45
2022/02/18 09:24:58;;;;;;;6.13;2.03;;;13.70;89.50;;;;;;5115076;28;20451;-43
2022/02/18 09:27:24;;;;;;;4.13;1.60;;;13.80;90.10;;;;;;5117490;28;20262;-45
2022/02/18 09:29:49;;;;;;;3.17;1.10;;;14.20;89.00;;;;;;5099206;28;20180;-43
2022/02/18 09:32:16;;;;;;;3.33;1.40;;;14.20;88.40;;;;;;5117522;28;20252;-46
2022/02/18 09:34:44;;;;;;;4.10;1.30;;;14.50;87.60;;;;;;5098152;28;20177;-44
2022/02/18 09:37:15;;;;;;;2.80;1.10;;;14.80;87.50;;;;;;5115487;28;20457;-43
2022/02/18 09:39:43;;;;;;;2.83;1.07;;;16.10;84.40;;;;;;5098389;28;20457;-44
2022/02/18 09:42:16;;;;;;;3.00;1.30;;;17.20;80.20;;;;;;5116268;28;20495;-43
2022/02/18 09:44:43;;;;;;;3.43;1.30;;;16.60;78.90;;;;;;5095521;28;20502;-45
2022/02/18 09:47:12;;;;;;;3.03;1.10;;;16.20;80.40;;;;;;5114640;28;20843;-43
2022/02/18 09:49:39;;;;;;;3.47;0.90;;;16.10;81.50;;;;;;5096397;28;20841;-43
2022/02/18 09:52:07;;;;;;;3.87;1.20;;;15.70;82.50;;;;;;5098200;28;20417;-45
2022/02/18 09:54:34;;;;;;;1.70;1.00;;;15.80;82.00;;;;;;5096874;28;20819;-45
2022/02/18 09:57:02;;;;;;;3.13;1.20;;;16.30;81.20;;;;;;5099018;28;20488;-43
2022/02/18 09:59:30;;;;;;;2.50;1.40;;;16.50;80.60;;;;;;5115986;28;20426;-43
2022/02/18 10:01:55;;;;;;;6.70;1.37;;;15.90;81.60;;;;;;5115970;28;20422;-46
2022/02/18 10:04:21;;;;;;;3.70;1.50;;;15.50;82.20;;;;;;5113005;28;20418;-44
2022/02/18 10:06:47;;;;;;;2.63;1.37;;;15.50;84.30;;;;;;5098419;28;20179;-43
2022/02/18 10:09:13;;;;;;;1.87;0.90;;;15.50;83.30;;;;;;5114609;28;20433;-44
2022/02/18 10:11:52;;;;;;;3.33;1.20;;;15.60;83.30;;;;;;5113876;28;20720;-46
2022/02/18 10:14:18;;;;;;;1.80;1.10;;;15.30;84.00;;;;;;5097695;28;20201;-43
2022/02/18 10:16:44;;;;;;;4.20;1.17;;;15.30;84.40;;;;;;5115769;28;20549;-45
2022/02/18 10:19:11;;;;;;;4.23;1.17;;;15.20;84.70;;;;;;5114085;28;20485;-43
2022/02/18 10:21:38;;;;;;;6.40;1.60;;;15.10;85.30;;;;;;5098257;28;20428;-44
2022/02/18 10:24:15;;;;;;;3.43;1.47;;;15.20;85.50;;;;;;5113606;28;20475;-46
2022/02/18 10:26:45;;;;;;;3.27;1.00;;;15.90;84.10;;;;;;5114701;28;20417;-44
2022/02/18 10:29:20;;;;;;;2.03;1.10;;;16.20;82.40;;;;;;5113965;28;20430;-45
2022/02/18 10:32:13;;;;;;;4.73;1.33;;;16.70;81.00;;;;;;5116419;28;20776;-44
2022/02/18 10:34:56;;;;;;;1.60;0.80;;;17.20;80.50;;;;;;5113758;28;20512;-48
2022/02/18 10:37:23;;;;;;;2.83;1.00;;;17.70;77.60;;;;;;5115071;28;20869;-47
2022/02/18 10:39:49;;;;;;;3.17;0.90;;;18.10;75.20;;;;;;5113678;28;20422;-44
2022/02/18 10:42:16;;;;;;;4.30;1.00;;;17.90;75.30;;;;;;5116361;28;20909;-43
2022/02/18 10:44:43;;;;;;;1.63;0.70;;;18.20;74.90;;;;;;5113303;28;20418;-44
2022/02/18 10:47:21;;;;;;;1.87;1.00;;;17.70;74.40;;;;;;5116061;28;20486;-46
2022/02/18 10:49:47;;;;;;;3.43;0.93;;;17.30;76.00;;;;;;5097334;28;20500;-44
2022/02/18 10:52:20;;;;;;;3.33;1.13;;;17.80;75.90;;;;;;5120378;28;20505;-44
2022/02/18 10:54:47;;;;;;;4.07;1.33;;;18.00;74.80;;;;;;5118383;28;20426;-43
2022/02/18 10:57:25;;;;;;;2.50;1.00;;;17.40;75.50;;;;;;5119789;28;20458;-43
2022/02/18 10:59:52;;;;;;;2.63;1.20;;;17.20;76.10;;;;;;5120869;27;20443;-43
2022/02/18 11:02:44;;;;;;;4.20;1.00;;;16.70;76.90;;;;;;5140913;27;20886;-44
2022/02/18 11:05:24;;;;;;;3.37;1.20;;;16.60;78.10;;;;;;5141395;27;20865;-46
2022/02/18 11:07:50;;;;;;;3.00;1.10;;;16.80;77.80;;;;;;5139606;27;20424;-43
2022/02/18 11:10:30;;;;;;;6.00;2.03;;;16.50;77.90;;;;;;5118845;27;20835;-46
2022/02/18 11:12:57;;;;;;;2.70;1.13;;;16.40;78.50;;;;;;5139223;27;20700;-43
2022/02/18 11:15:23;;;;;;;3.17;1.53;;;16.70;78.40;;;;;;5138340;27;20429;-45
2022/02/18 11:17:50;;;;;;;9.63;1.40;;;16.50;77.40;;;;;;5139389;27;20483;-44
2022/02/18 11:20:16;;;;;;;3.00;1.37;;;16.30;76.70;;;;;;5119525;27;20844;-43
2022/02/18 11:22:44;;;;;;;4.40;1.17;;;16.10;76.60;;;;;;5119503;27;20706;-46
2022/02/18 11:25:11;;;;;;;3.30;0.90;;;15.90;76.80;;;;;;5135462;27;20738;-43
2022/02/18 11:27:40;;;;;;;3.50;1.20;;;15.90;77.20;;;;;;5138666;27;20439;-46
2022/02/18 11:30:07;;;;;;;3.17;1.20;;;16.10;77.40;;;;;;5138346;27;20417;-43
2022/02/18 11:33:03;;;;;;;2.80;0.83;;;16.80;76.80;;;;;;5119238;27;20624;-43
2022/02/18 11:36:06;;;;;;;2.90;1.63;;;17.20;75.40;;;;;;5091116;27;20588;-46
2022/02/18 11:38:57;;;;;;;2.63;1.17;;;16.60;75.30;;;;;;5138395;27;20706;-45
2022/02/18 11:41:55;;;;;;;2.30;0.90;;;17.00;75.60;;;;;;5119903;27;20401;-43
2022/02/18 11:44:33;;;;;;;5.50;0.90;;;17.00;75.40;;;;;;5078821;27;20909;-44
2022/02/18 11:47:21;;;;;;;3.90;1.07;;;16.70;75.50;;;;;;5137502;27;20427;-43
2022/02/18 11:49:50;;;;;;;2.10;0.80;;;16.30;75.70;;;;;;5136299;27;20843;-43
2022/02/18 11:52:18;;;;;;;4.90;0.93;;;16.10;76.00;;;;;;5134999;27;20444;-46
2022/02/18 11:54:44;;;;;;;2.03;1.20;;;15.70;76.50;;;;;;5139174;27;20458;-45
2022/02/18 11:57:16;;;;;;;7.70;1.00;;;15.60;77.40;;;;;;5136549;27;20505;-44
2022/02/18 12:00:03;;;;;;;1.80;1.27;;;15.80;77.00;;;;;;5138766;27;20791;-44
2022/02/18 12:02:40;;;;;;;2.40;1.27;;;15.90;77.20;;;;;;5136531;27;20447;-43
2022/02/18 12:05:09;;;;;;;3.53;1.33;;;16.10;77.20;;;;;;5137495;27;20416;-44
2022/02/18 12:07:46;;;;;;;3.90;1.07;;;16.00;76.00;;;;;;5135801;27;20790;-44
2022/02/18 12:10:14;;;;;;;4.60;1.43;;;15.90;76.30;;;;;;5137110;27;20413;-43
2022/02/18 12:12:44;;;;;;;2.03;0.90;;;16.10;76.50;;;;;;5135589;27;20499;-45
2022/02/18 12:15:26;;;;;;;2.93;0.93;;;16.20;76.00;;;;;;5136454;27;20656;-44
2022/02/18 12:18:02;;;;;;;1.53;0.73;;;16.20;76.20;;;;;;5136208;27;20804;-45
2022/02/18 12:20:32;;;;;;;2.60;0.90;;;16.00;75.50;;;;;;5138295;27;20906;-48
2022/02/18 12:22:58;;;;;;;3.30;0.80;;;15.90;76.60;;;;;;5136204;27;20489;-47
2022/02/18 12:25:30;;;;;;;3.10;1.10;;;15.80;76.90;;;;;;5119737;27;20417;-45
2022/02/18 12:28:17;;;;;;;4.00;1.13;;;15.50;77.60;;;;;;5136293;27;20412;-44
2022/02/18 12:30:53;;;;;;;2.33;1.03;;;15.60;78.00;;;;;;5133079;27;20413;-45
2022/02/18 12:33:18;;;;;;;3.33;1.07;;;15.90;77.80;;;;;;5118396;27;20491;-46
2022/02/18 12:35:46;;;;;;;3.70;1.43;;;16.00;77.00;;;;;;5138572;27;20407;-42
2022/02/18 12:38:12;;;;;;;4.83;1.00;;;15.80;78.40;;;;;;5134058;27;20232;-48
2022/02/18 12:40:40;;;;;;;2.80;0.93;;;15.70;77.80;;;;;;5138522;27;20415;-44
2022/02/18 12:43:12;;;;;;;3.03;0.93;;;15.60;78.50;;;;;;5117288;27;20456;-44
2022/02/18 12:45:39;;;;;;;4.00;1.13;;;15.50;79.00;;;;;;5138009;27;20486;-47
2022/02/18 12:48:05;;;;;;;4.77;1.00;;;15.50;78.70;;;;;;5136324;27;20415;-46
2022/02/18 12:50:33;;;;;;;3.83;1.30;;;15.40;78.40;;;;;;5136830;27;20861;-44